Atlas, Illinois
Current Conditions -  °F | °C
As of 7:35 AM on Friday 28 Nov 2014 (Local Time) from KPPQ Reporting Station
Clear Clear  
Wind Chill: 14°   Ceiling: Unl
Heat Index: 25°   Visibility: 7mi
Dew Point: 22°   Wind: 12mph
Humidity: 89%   Direction: 150°SSE
Pressure: 30.18"   Gusts: NA
Location:  39.5365°N, 91.0118°W
Report Text: KPPQ 281335Z AUTO 15010KT 7SM CLR M04/M06 A3018 RMK AO2 T10411057 PWINO
Loading
Personal Weather Stations






























Interactive Weather Map New forecast layout! Learn more

10-Day Weather Forecast

Advertisements
Track Severe Weather on mobile